Orel 5 — EMFH — position and weather

sailwx.info

Track history (hours):
 
Tides and Currents Weather Stations Pressure Air Temp Water Temp Dewpoint Dewpoint Depression Visibility Wind Speed Wind Dir Waves Ship Positions

Orel 5

Last reported at 2016-May-26 10:33 UTC. Time now 2016-May-26 10:42 UTC.
Position N 47°52' E 035°06'.

Length 108 m; draft 3.3 m.

Type: Cargo ship. MMSI: 272059000.

Date/timePositionNaut miles runAvg speedWind from/ knotsBaromVisibWave heightAir tempDewpointWater temp
2016-May-26 10:33N 47°52' E 035°06'0 0.0
2016-May-26 09:33N 47°52' E 035°06'0 0.0
2016-May-26 08:33N 47°52' E 035°06'0 0.0
2016-May-26 07:31N 47°52' E 035°06'0 0.0
2016-May-26 06:31N 47°52' E 035°06'0 0.0
2016-May-26 05:31N 47°52' E 035°06'1 0.8
2016-May-26 04:29N 47°52' E 035°05'4 4.4
2016-May-26 03:32N 47°49' E 035°09'0 0.1
2016-May-26 02:32N 47°49' E 035°09'0 0.1
2016-May-26 01:32N 47°49' E 035°09'1 1.2
2016-May-26 00:33N 47°47' E 035°10'7 7.2
2016-May-25 23:31N 47°40' E 035°07'127 6.3
2016-May-25 03:18N 46°34' E 032°27'5 6.6
2016-May-25 02:33N 46°33' E 032°20'7 6.8
2016-May-25 01:33N 46°32' E 032°10'3 3.1
2016-May-25 00:33N 46°32' E 032°06'0 0.0
2016-May-24 23:33N 46°32' E 032°06'0 0.0
2016-May-24 22:33N 46°32' E 032°06'0 0.0
2016-May-24 21:33N 46°32' E 032°06'1 0.9
2016-May-24 20:33N 46°32' E 032°05'6 6.4
2016-May-24 19:33N 46°34' E 031°56'6 6.5
2016-May-24 18:33N 46°36' E 031°47'6 6.5
2016-May-24 17:33N 46°36' E 031°37'6 5.8
2016-May-24 16:33N 46°36' E 031°29'6 6.3
2016-May-24 15:33N 46°35' E 031°20'6 6.3
2016-May-24 14:33N 46°35' E 031°11'6 6.2
2016-May-24 13:33N 46°34' E 031°02'6 5.7
2016-May-24 12:33N 46°29' E 030°57'7 7.0
2016-May-24 11:34N 46°22' E 030°57'7 6.7
2016-May-24 10:33N 46°15' E 030°58'4 4.3
2016-May-24 09:34N 46°16' E 030°51'7 6.8
2016-May-24 08:34N 46°19' E 030°42'2 0.5
2016-May-24 04:32N 46°19' E 030°40'0 0.0
2016-May-24 03:32N 46°19' E 030°40'0 0.0
2016-May-24 02:14N 46°19' E 030°40'0 0.0
2016-May-24 00:20N 46°19' E 030°40'0 0.0
2016-May-23 23:29N 46°19' E 030°40'0 0.0
2016-May-23 22:29N 46°19' E 030°40'0 0.0
2016-May-23 21:32N 46°19' E 030°40'0 0.0
2016-May-23 20:26N 46°19' E 030°40'0 0.0
2016-May-23 15:26N 46°19' E 030°40'0 0.0
2016-May-23 14:26N 46°19' E 030°40'0 0.0
2016-May-23 13:17N 46°19' E 030°40'0 0.0
2016-May-23 12:29N 46°19' E 030°40'0 0.0
2016-May-23 11:29N 46°19' E 030°40'0 0.0
2016-May-23 10:29N 46°19' E 030°40'0 0.0
2016-May-23 08:29N 46°19' E 030°40'0 0.0
2016-May-23 07:29N 46°19' E 030°40'0 0.0
2016-May-23 06:26N 46°19' E 030°40'0 0.0
2016-May-23 05:32N 46°19' E 030°40'0 0.0
2016-May-23 04:32N 46°19' E 030°40'0 0.0
2016-May-23 03:32N 46°19' E 030°40'0 0.0
2016-May-23 02:20N 46°19' E 030°40'0 0.0
2016-May-23 01:32N 46°19' E 030°40'0 0.0
2016-May-23 00:32N 46°19' E 030°40'0 0.0
2016-May-22 23:26N 46°19' E 030°40'0 0.0
2016-May-22 22:23N 46°19' E 030°40'0 0.0
2016-May-22 21:32N 46°19' E 030°40'0 0.0
2016-May-22 20:32N 46°19' E 030°40'0 0.0
2016-May-22 19:26N 46°19' E 030°40'0 0.0
2016-May-22 18:32N 46°19' E 030°40'0 0.0
2016-May-22 17:32N 46°19' E 030°40'2 1.6
2016-May-22 16:33N 46°19' E 030°42'6 5.9
2016-May-22 15:33N 46°18' E 030°50'6 6.2
2016-May-22 14:33N 46°15' E 030°59'7 6.7
2016-May-22 13:33N 46°09' E 031°03'8 7.8
2016-May-22 12:33N 46°03' E 030°56'8 7.8
2016-May-22 11:33N 45°57' E 030°50'308 6.5
2016-May-20 12:31N 40°59' E 028°60'4 0.7
2016-May-20 07:33N 40°57' E 028°56'8 7.3
2016-May-20 06:29N 40°50' E 028°50'144 7.2
2016-May-19 10:30N 39°41' E 026°05'  
Track history (hours):
 
Tides and Currents Weather Stations Pressure Air Temp Water Temp Dewpoint Dewpoint Depression Visibility Wind Speed Wind Dir Waves Ship Positions

Orel 5

Last reported at 2016-May-26 10:33 UTC. Time now 2016-May-26 10:42 UTC.
Position N 47°52' E 035°06'.

Length 108 m; draft 3.3 m.

Type: Cargo ship. MMSI: 272059000.

Date/timePositionNaut miles runAvg speedWind from/ knotsBaromVisibWave heightAir tempDewpointWater temp
2016-May-26 10:33N 47°52' E 035°06'0 0.0
2016-May-26 09:33N 47°52' E 035°06'0 0.0
2016-May-26 08:33N 47°52' E 035°06'0 0.0
2016-May-26 07:31N 47°52' E 035°06'0 0.0
2016-May-26 06:31N 47°52' E 035°06'0 0.0
2016-May-26 05:31N 47°52' E 035°06'1 0.8
2016-May-26 04:29N 47°52' E 035°05'4 4.4
2016-May-26 03:32N 47°49' E 035°09'0 0.1
2016-May-26 02:32N 47°49' E 035°09'0 0.1
2016-May-26 01:32N 47°49' E 035°09'1 1.2
2016-May-26 00:33N 47°47' E 035°10'7 7.2
2016-May-25 23:31N 47°40' E 035°07'127 6.3
2016-May-25 03:18N 46°34' E 032°27'5 6.6
2016-May-25 02:33N 46°33' E 032°20'7 6.8
2016-May-25 01:33N 46°32' E 032°10'3 3.1
2016-May-25 00:33N 46°32' E 032°06'0 0.0
2016-May-24 23:33N 46°32' E 032°06'0 0.0
2016-May-24 22:33N 46°32' E 032°06'0 0.0
2016-May-24 21:33N 46°32' E 032°06'1 0.9
2016-May-24 20:33N 46°32' E 032°05'6 6.4
2016-May-24 19:33N 46°34' E 031°56'6 6.5
2016-May-24 18:33N 46°36' E 031°47'6 6.5
2016-May-24 17:33N 46°36' E 031°37'6 5.8
2016-May-24 16:33N 46°36' E 031°29'6 6.3
2016-May-24 15:33N 46°35' E 031°20'6 6.3
2016-May-24 14:33N 46°35' E 031°11'6 6.2
2016-May-24 13:33N 46°34' E 031°02'6 5.7
2016-May-24 12:33N 46°29' E 030°57'7 7.0
2016-May-24 11:34N 46°22' E 030°57'7 6.7
2016-May-24 10:33N 46°15' E 030°58'4 4.3
2016-May-24 09:34N 46°16' E 030°51'7 6.8
2016-May-24 08:34N 46°19' E 030°42'2 0.5
2016-May-24 04:32N 46°19' E 030°40'0 0.0
2016-May-24 03:32N 46°19' E 030°40'0 0.0
2016-May-24 02:14N 46°19' E 030°40'0 0.0
2016-May-24 00:20N 46°19' E 030°40'0 0.0
2016-May-23 23:29N 46°19' E 030°40'0 0.0
2016-May-23 22:29N 46°19' E 030°40'0 0.0
2016-May-23 21:32N 46°19' E 030°40'0 0.0
2016-May-23 20:26N 46°19' E 030°40'0 0.0
2016-May-23 15:26N 46°19' E 030°40'0 0.0
2016-May-23 14:26N 46°19' E 030°40'0 0.0
2016-May-23 13:17N 46°19' E 030°40'0 0.0
2016-May-23 12:29N 46°19' E 030°40'0 0.0
2016-May-23 11:29N 46°19' E 030°40'0 0.0
2016-May-23 10:29N 46°19' E 030°40'0 0.0
2016-May-23 08:29N 46°19' E 030°40'0 0.0
2016-May-23 07:29N 46°19' E 030°40'0 0.0
2016-May-23 06:26N 46°19' E 030°40'0 0.0
2016-May-23 05:32N 46°19' E 030°40'0 0.0
2016-May-23 04:32N 46°19' E 030°40'0 0.0
2016-May-23 03:32N 46°19' E 030°40'0 0.0
2016-May-23 02:20N 46°19' E 030°40'0 0.0
2016-May-23 01:32N 46°19' E 030°40'0 0.0
2016-May-23 00:32N 46°19' E 030°40'0 0.0
2016-May-22 23:26N 46°19' E 030°40'0 0.0
2016-May-22 22:23N 46°19' E 030°40'0 0.0
2016-May-22 21:32N 46°19' E 030°40'0 0.0
2016-May-22 20:32N 46°19' E 030°40'0 0.0
2016-May-22 19:26N 46°19' E 030°40'0 0.0
2016-May-22 18:32N 46°19' E 030°40'0 0.0
2016-May-22 17:32N 46°19' E 030°40'2 1.6
2016-May-22 16:33N 46°19' E 030°42'6 5.9
2016-May-22 15:33N 46°18' E 030°50'6 6.2
2016-May-22 14:33N 46°15' E 030°59'7 6.7
2016-May-22 13:33N 46°09' E 031°03'8 7.8
2016-May-22 12:33N 46°03' E 030°56'8 7.8
2016-May-22 11:33N 45°57' E 030°50'308 6.5
2016-May-20 12:31N 40°59' E 028°60'4 0.7
2016-May-20 07:33N 40°57' E 028°56'8 7.3
2016-May-20 06:29N 40°50' E 028°50'144 7.2
2016-May-19 10:30N 39°41' E 026°05'  

Dump ship's entire track history